sensor_id;sensor_type;location;lat;lon;timestamp;pressure;altitude;pressure_sealevel;temperature;humidity
45894;BME280;31603;51.148;16.932;2023-08-12T00:00:33;100825.72;;;16.98;100.00
45894;BME280;31603;51.148;16.932;2023-08-12T00:03:01;100830.38;;;17.51;100.00
45894;BME280;31603;51.148;16.932;2023-08-12T00:05:28;100822.69;;;17.76;100.00
45894;BME280;31603;51.148;16.932;2023-08-12T00:07:54;100818.03;;;18.06;100.00
45894;BME280;31603;51.148;16.932;2023-08-12T00:10:22;100815.00;;;18.07;100.00
45894;BME280;31603;51.148;16.932;2023-08-12T00:12:48;100817.06;;;17.53;100.00
45894;BME280;31603;51.148;16.932;2023-08-12T00:15:15;100824.94;;;17.32;100.00
45894;BME280;31603;51.148;16.932;2023-08-12T00:17:41;100831.38;;;17.03;100.00
45894;BME280;31603;51.148;16.932;2023-08-12T00:20:08;100816.72;;;17.38;100.00
45894;BME280;31603;51.148;16.932;2023-08-12T00:22:36;100817.19;;;17.46;100.00
45894;BME280;31603;51.148;16.932;2023-08-12T00:25:03;100816.72;;;17.38;100.00
45894;BME280;31603;51.148;16.932;2023-08-12T00:27:31;100812.97;;;17.44;100.00
45894;BME280;31603;51.148;16.932;2023-08-12T00:29:57;100819.22;;;17.27;100.00
45894;BME280;31603;51.148;16.932;2023-08-12T00:32:23;100804.22;;;17.05;100.00
45894;BME280;31603;51.148;16.932;2023-08-12T00:34:50;100808.09;;;17.04;100.00
45894;BME280;31603;51.148;16.932;2023-08-12T00:37:16;100798.47;;;17.30;100.00
45894;BME280;31603;51.148;16.932;2023-08-12T00:39:43;100793.25;;;17.22;100.00
45894;BME280;31603;51.148;16.932;2023-08-12T00:42:09;100788.28;;;17.36;100.00
45894;BME280;31603;51.148;16.932;2023-08-12T00:44:37;100794.03;;;16.99;100.00
45894;BME280;31603;51.148;16.932;2023-08-12T00:47:03;100774.91;;;17.32;100.00
45894;BME280;31603;51.148;16.932;2023-08-12T00:49:31;100771.38;;;17.25;100.00
45894;BME280;31603;51.148;16.932;2023-08-12T00:51:59;100767.00;;;17.06;100.00
45894;BME280;31603;51.148;16.932;2023-08-12T00:54:26;100771.75;;;17.41;100.00
45894;BME280;31603;51.148;16.932;2023-08-12T00:56:54;100767.16;;;17.58;100.00
45894;BME280;31603;51.148;16.932;2023-08-12T00:59:21;100758.31;;;17.61;100.00
45894;BME280;31603;51.148;16.932;2023-08-12T01:01:49;100767.50;;;17.50;100.00
45894;BME280;31603;51.148;16.932;2023-08-12T01:04:16;100767.00;;;17.53;100.00
45894;BME280;31603;51.148;16.932;2023-08-12T01:06:42;100767.00;;;17.53;100.00
45894;BME280;31603;51.148;16.932;2023-08-12T01:09:09;100765.06;;;17.53;100.00
45894;BME280;31603;51.148;16.932;2023-08-12T01:11:39;100765.09;;;17.42;100.00
45894;BME280;31603;51.148;16.932;2023-08-12T01:14:15;100765.34;;;17.52;100.00
45894;BME280;31603;51.148;16.932;2023-08-12T01:16:46;100757.00;;;17.40;100.00
45894;BME280;31603;51.148;16.932;2023-08-12T01:19:21;100773.19;;;17.31;100.00
45894;BME280;31603;51.148;16.932;2023-08-12T01:21:52;100766.66;;;17.26;100.00
45894;BME280;31603;51.148;16.932;2023-08-12T01:24:21;100763.53;;;17.34;100.00
45894;BME280;31603;51.148;16.932;2023-08-12T01:26:47;100763.25;;;17.36;100.00
45894;BME280;31603;51.148;16.932;2023-08-12T01:29:14;100770.16;;;17.45;100.00
45894;BME280;31603;51.148;16.932;2023-08-12T01:31:45;100757.97;;;17.58;100.00
45894;BME280;31603;51.148;16.932;2023-08-12T01:34:19;100762.31;;;17.30;100.00
45894;BME280;31603;51.148;16.932;2023-08-12T01:36:56;100765.69;;;17.20;100.00
45894;BME280;31603;51.148;16.932;2023-08-12T01:39:26;100769.09;;;17.22;100.00
45894;BME280;31603;51.148;16.932;2023-08-12T01:41:53;100771.84;;;17.46;100.00
45894;BME280;31603;51.148;16.932;2023-08-12T01:44:20;100765.56;;;17.39;100.00
45894;BME280;31603;51.148;16.932;2023-08-12T01:46:46;100763.88;;;17.14;100.00
45894;BME280;31603;51.148;16.932;2023-08-12T01:49:13;100762.34;;;16.76;100.00
45894;BME280;31603;51.148;16.932;2023-08-12T01:51:39;100757.59;;;16.65;100.00
45894;BME280;31603;51.148;16.932;2023-08-12T01:54:06;100756.50;;;16.66;100.00
45894;BME280;31603;51.148;16.932;2023-08-12T01:56:33;100763.09;;;16.83;100.00
45894;BME280;31603;51.148;16.932;2023-08-12T01:59:00;100754.75;;;16.83;100.00
45894;BME280;31603;51.148;16.932;2023-08-12T02:01:26;100747.53;;;16.82;100.00
45894;BME280;31603;51.148;16.932;2023-08-12T02:03:53;100736.81;;;16.56;100.00
45894;BME280;31603;51.148;16.932;2023-08-12T02:06:19;100747.00;;;16.74;100.00
45894;BME280;31603;51.148;16.932;2023-08-12T02:08:45;100742.84;;;16.65;100.00
45894;BME280;31603;51.148;16.932;2023-08-12T02:11:12;100742.81;;;16.95;100.00
45894;BME280;31603;51.148;16.932;2023-08-12T02:13:39;100744.16;;;16.92;100.00
45894;BME280;31603;51.148;16.932;2023-08-12T02:16:06;100745.69;;;16.76;100.00
45894;BME280;31603;51.148;16.932;2023-08-12T02:18:32;100739.50;;;16.32;100.00
45894;BME280;31603;51.148;16.932;2023-08-12T02:20:58;100742.78;;;16.41;100.00
45894;BME280;31603;51.148;16.932;2023-08-12T02:23:24;100748.75;;;16.26;100.00
45894;BME280;31603;51.148;16.932;2023-08-12T02:25:52;100746.41;;;16.42;100.00
45894;BME280;31603;51.148;16.932;2023-08-12T02:28:19;100743.66;;;16.42;100.00
45894;BME280;31603;51.148;16.932;2023-08-12T02:30:47;100748.72;;;16.75;100.00
45894;BME280;31603;51.148;16.932;2023-08-12T02:33:13;100747.06;;;16.97;100.00
45894;BME280;31603;51.148;16.932;2023-08-12T02:35:39;100747.69;;;17.11;100.00
45894;BME280;31603;51.148;16.932;2023-08-12T02:38:06;100742.50;;;17.26;100.00
45894;BME280;31603;51.148;16.932;2023-08-12T02:40:32;100740.53;;;17.39;100.00
45894;BME280;31603;51.148;16.932;2023-08-12T02:42:59;100739.69;;;17.03;100.00
45894;BME280;31603;51.148;16.932;2023-08-12T02:45:25;100740.66;;;16.85;100.00
45894;BME280;31603;51.148;16.932;2023-08-12T02:47:53;100743.59;;;16.72;100.00
45894;BME280;31603;51.148;16.932;2023-08-12T02:50:20;100732.31;;;16.97;100.00
45894;BME280;31603;51.148;16.932;2023-08-12T02:52:46;100733.19;;;17.09;100.00
45894;BME280;31603;51.148;16.932;2023-08-12T02:55:12;100734.88;;;17.22;100.00
45894;BME280;31603;51.148;16.932;2023-08-12T02:57:39;100743.09;;;17.17;100.00
45894;BME280;31603;51.148;16.932;2023-08-12T03:00:06;100737.41;;;17.00;100.00
45894;BME280;31603;51.148;16.932;2023-08-12T03:02:33;100740.19;;;17.12;100.00
45894;BME280;31603;51.148;16.932;2023-08-12T03:05:01;100736.78;;;16.98;100.00
45894;BME280;31603;51.148;16.932;2023-08-12T03:07:28;100736.78;;;16.98;100.00
45894;BME280;31603;51.148;16.932;2023-08-12T03:09:54;100740.03;;;16.95;100.00
45894;BME280;31603;51.148;16.932;2023-08-12T03:12:21;100742.25;;;17.16;100.00
45894;BME280;31603;51.148;16.932;2023-08-12T03:14:47;100743.34;;;17.15;100.00
45894;BME280;31603;51.148;16.932;2023-08-12T03:17:13;100743.09;;;17.05;100.00
45894;BME280;31603;51.148;16.932;2023-08-12T03:19:40;100745.88;;;17.17;100.00
45894;BME280;31603;51.148;16.932;2023-08-12T03:22:08;100743.09;;;17.05;100.00
45894;BME280;31603;51.148;16.932;2023-08-12T03:24:34;100747.91;;;16.98;100.00
45894;BME280;31603;51.148;16.932;2023-08-12T03:27:00;100753.09;;;16.82;100.00
45894;BME280;31603;51.148;16.932;2023-08-12T03:29:27;100748.53;;;16.70;100.00
45894;BME280;31603;51.148;16.932;2023-08-12T03:31:53;100737.41;;;16.58;100.00
45894;BME280;31603;51.148;16.932;2023-08-12T03:34:19;100734.03;;;16.56;100.00
45894;BME280;31603;51.148;16.932;2023-08-12T03:36:46;100729.22;;;16.63;100.00
45894;BME280;31603;51.148;16.932;2023-08-12T03:39:15;100733.28;;;16.49;100.00
45894;BME280;31603;51.148;16.932;2023-08-12T03:41:42;100737.13;;;16.48;100.00
45894;BME280;31603;51.148;16.932;2023-08-12T03:44:09;100739.59;;;16.56;100.00
45894;BME280;31603;51.148;16.932;2023-08-12T03:46:35;100736.19;;;16.54;100.00
45894;BME280;31603;51.148;16.932;2023-08-12T03:49:02;100743.16;;;16.15;100.00
45894;BME280;31603;51.148;16.932;2023-08-12T03:51:28;100744.34;;;15.88;100.00
45894;BME280;31603;51.148;16.932;2023-08-12T03:53:54;100742.59;;;16.24;100.00
45894;BME280;31603;51.148;16.932;2023-08-12T03:56:23;100750.63;;;16.44;100.00
45894;BME280;31603;51.148;16.932;2023-08-12T03:58:51;100746.16;;;16.43;100.00
45894;BME280;31603;51.148;16.932;2023-08-12T04:01:17;100743.50;;;16.36;100.00
45894;BME280;31603;51.148;16.932;2023-08-12T04:03:44;100750.19;;;16.59;100.00
45894;BME280;31603;51.148;16.932;2023-08-12T04:06:10;100747.16;;;16.91;100.00
45894;BME280;31603;51.148;16.932;2023-08-12T04:08:36;100736.22;;;17.19;100.00
45894;BME280;31603;51.148;16.932;2023-08-12T04:11:03;100735.22;;;17.14;100.00
45894;BME280;31603;51.148;16.932;2023-08-12T04:13:30;100744.78;;;17.18;100.00
45894;BME280;31603;51.148;16.932;2023-08-12T04:15:57;100739.81;;;17.20;100.00
45894;BME280;31603;51.148;16.932;2023-08-12T04:18:23;100726.66;;;17.39;100.00
45894;BME280;31603;51.148;16.932;2023-08-12T04:20:50;100717.97;;;17.47;100.00
45894;BME280;31603;51.148;16.932;2023-08-12T04:23:17;100720.00;;;17.40;100.00
45894;BME280;31603;51.148;16.932;2023-08-12T04:25:44;100727.59;;;17.56;100.00
45894;BME280;31603;51.148;16.932;2023-08-12T04:28:11;100706.84;;;17.47;100.00
45894;BME280;31603;51.148;16.932;2023-08-12T04:30:41;100722.94;;;17.21;100.00
45894;BME280;31603;51.148;16.932;2023-08-12T04:33:08;100716.50;;;17.09;100.00
45894;BME280;31603;51.148;16.932;2023-08-12T04:35:34;100720.84;;;17.05;100.00
45894;BME280;31603;51.148;16.932;2023-08-12T04:38:01;100718.44;;;17.08;100.00
45894;BME280;31603;51.148;16.932;2023-08-12T04:40:27;100716.72;;;17.43;100.00
45894;BME280;31603;51.148;16.932;2023-08-12T04:42:54;100717.81;;;17.65;100.00
45894;BME280;31603;51.148;16.932;2023-08-12T04:45:20;100715.88;;;17.77;100.00
45894;BME280;31603;51.148;16.932;2023-08-12T04:47:48;100720.09;;;17.80;100.00
45894;BME280;31603;51.148;16.932;2023-08-12T04:50:15;100720.06;;;17.92;100.00
45894;BME280;31603;51.148;16.932;2023-08-12T04:52:41;100717.75;;;17.89;100.00
45894;BME280;31603;51.148;16.932;2023-08-12T04:55:08;100719.97;;;18.15;100.00
45894;BME280;31603;51.148;16.932;2023-08-12T04:57:35;100719.13;;;18.15;100.00
45894;BME280;31603;51.148;16.932;2023-08-12T05:00:03;100725.94;;;18.36;100.00
45894;BME280;31603;51.148;16.932;2023-08-12T05:02:29;100715.28;;;18.33;100.00
45894;BME280;31603;51.148;16.932;2023-08-12T05:04:57;100721.72;;;18.33;100.00
45894;BME280;31603;51.148;16.932;2023-08-12T05:07:23;100721.91;;;18.43;100.00
45894;BME280;31603;51.148;16.932;2023-08-12T05:09:50;100722.94;;;18.54;100.00
45894;BME280;31603;51.148;16.932;2023-08-12T05:12:16;100712.63;;;18.38;100.00
45894;BME280;31603;51.148;16.932;2023-08-12T05:14:43;100713.41;;;18.50;100.00
45894;BME280;31603;51.148;16.932;2023-08-12T05:17:09;100711.38;;;18.62;100.00
45894;BME280;31603;51.148;16.932;2023-08-12T05:19:36;100707.13;;;18.71;100.00
45894;BME280;31603;51.148;16.932;2023-08-12T05:22:03;100703.41;;;18.83;100.00
45894;BME280;31603;51.148;16.932;2023-08-12T05:24:30;100704.41;;;18.76;100.00
45894;BME280;31603;51.148;16.932;2023-08-12T05:26:56;100696.44;;;18.68;100.00
45894;BME280;31603;51.148;16.932;2023-08-12T05:29:23;100701.56;;;18.71;100.00
45894;BME280;31603;51.148;16.932;2023-08-12T05:31:49;100692.22;;;18.66;100.00
45894;BME280;31603;51.148;16.932;2023-08-12T05:34:16;100686.31;;;18.45;100.00
45894;BME280;31603;51.148;16.932;2023-08-12T05:36:42;100684.00;;;18.71;100.00
45894;BME280;31603;51.148;16.932;2023-08-12T05:39:10;100687.47;;;18.66;100.00
45894;BME280;31603;51.148;16.932;2023-08-12T05:41:36;100689.31;;;18.89;100.00
45894;BME280;31603;51.148;16.932;2023-08-12T05:44:03;100683.03;;;19.16;100.00
45894;BME280;31603;51.148;16.932;2023-08-12T05:46:30;100681.03;;;19.50;100.00
45894;BME280;31603;51.148;16.932;2023-08-12T05:48:56;100676.38;;;19.39;100.00
45894;BME280;31603;51.148;16.932;2023-08-12T05:51:23;100684.06;;;19.65;100.00
45894;BME280;31603;51.148;16.932;2023-08-12T05:53:49;100681.69;;;19.57;100.00
45894;BME280;31603;51.148;16.932;2023-08-12T05:56:17;100680.66;;;19.63;100.00
45894;BME280;31603;51.148;16.932;2023-08-12T05:58:43;100677.63;;;19.87;100.00
45894;BME280;31603;51.148;16.932;2023-08-12T06:01:10;100672.34;;;20.12;100.00
45894;BME280;31603;51.148;16.932;2023-08-12T06:03:36;100678.03;;;20.01;100.00
45894;BME280;31603;51.148;16.932;2023-08-12T06:06:03;100671.25;;;20.18;100.00
45894;BME280;31603;51.148;16.932;2023-08-12T06:08:29;100665.38;;;20.42;100.00
45894;BME280;31603;51.148;16.932;2023-08-12T06:10:55;100664.97;;;20.55;100.00
45894;BME280;31603;51.148;16.932;2023-08-12T06:13:23;100663.59;;;20.31;100.00
45894;BME280;31603;51.148;16.932;2023-08-12T06:15:50;100670.84;;;20.91;100.00
45894;BME280;31603;51.148;16.932;2023-08-12T06:18:16;100672.13;;;21.10;100.00
45894;BME280;31603;51.148;16.932;2023-08-12T06:20:42;100667.56;;;21.42;100.00
45894;BME280;31603;51.148;16.932;2023-08-12T06:23:09;100667.88;;;21.45;100.00
45894;BME280;31603;51.148;16.932;2023-08-12T06:25:35;100664.53;;;21.43;100.00
45894;BME280;31603;51.148;16.932;2023-08-12T06:28:02;100654.84;;;21.66;100.00
45894;BME280;31603;51.148;16.932;2023-08-12T06:30:31;100657.16;;;21.84;100.00
45894;BME280;31603;51.148;16.932;2023-08-12T06:32:57;100647.56;;;21.70;100.00
45894;BME280;31603;51.148;16.932;2023-08-12T06:35:23;100650.63;;;21.63;100.00
45894;BME280;31603;51.148;16.932;2023-08-12T06:37:50;100646.75;;;21.75;100.00
45894;BME280;31603;51.148;16.932;2023-08-12T06:40:16;100643.97;;;21.85;100.00
45894;BME280;31603;51.148;16.932;2023-08-12T06:42:43;100644.88;;;22.11;100.00
45894;BME280;31603;51.148;16.932;2023-08-12T06:45:10;100641.88;;;22.28;100.00
45894;BME280;31603;51.148;16.932;2023-08-12T06:47:38;100646.41;;;22.59;100.00
45894;BME280;31603;51.148;16.932;2023-08-12T06:50:05;100645.28;;;22.71;97.85
45894;BME280;31603;51.148;16.932;2023-08-12T06:52:31;100641.66;;;22.70;95.85
45894;BME280;31603;51.148;16.932;2023-08-12T06:54:57;100638.00;;;22.59;97.19
45894;BME280;31603;51.148;16.932;2023-08-12T06:57:24;100639.69;;;22.55;99.22
45894;BME280;31603;51.148;16.932;2023-08-12T06:59:50;100639.13;;;22.74;98.96
45894;BME280;31603;51.148;16.932;2023-08-12T07:02:17;100639.09;;;22.38;98.79
45894;BME280;31603;51.148;16.932;2023-08-12T07:04:44;100638.50;;;22.26;99.86
45894;BME280;31603;51.148;16.932;2023-08-12T07:07:11;100642.47;;;22.61;98.59
45894;BME280;31603;51.148;16.932;2023-08-12T07:09:37;100635.19;;;22.54;98.83
45894;BME280;31603;51.148;16.932;2023-08-12T07:12:04;100632.09;;;22.81;98.65
45894;BME280;31603;51.148;16.932;2023-08-12T07:14:30;100630.16;;;22.92;98.31
45894;BME280;31603;51.148;16.932;2023-08-12T07:16:57;100635.19;;;22.75;98.03
45894;BME280;31603;51.148;16.932;2023-08-12T07:19:23;100631.22;;;22.91;98.13
45894;BME280;31603;51.148;16.932;2023-08-12T07:21:51;100640.22;;;23.14;96.73
45894;BME280;31603;51.148;16.932;2023-08-12T07:24:18;100635.22;;;22.95;95.73
45894;BME280;31603;51.148;16.932;2023-08-12T07:26:44;100631.78;;;23.19;94.91
45894;BME280;31603;51.148;16.932;2023-08-12T07:29:11;100627.03;;;23.09;93.27
45894;BME280;31603;51.148;16.932;2023-08-12T07:31:37;100633.38;;;23.45;92.81
45894;BME280;31603;51.148;16.932;2023-08-12T07:34:04;100623.34;;;23.29;92.32
45894;BME280;31603;51.148;16.932;2023-08-12T07:36:31;100620.72;;;23.68;91.60
45894;BME280;31603;51.148;16.932;2023-08-12T07:38:59;100616.78;;;23.69;89.84
45894;BME280;31603;51.148;16.932;2023-08-12T07:41:25;100618.50;;;24.15;86.45
45894;BME280;31603;51.148;16.932;2023-08-12T07:43:53;100620.31;;;23.90;86.62
45894;BME280;31603;51.148;16.932;2023-08-12T07:46:19;100623.88;;;23.36;88.42
45894;BME280;31603;51.148;16.932;2023-08-12T07:48:46;100621.81;;;23.72;91.40
45894;BME280;31603;51.148;16.932;2023-08-12T07:51:12;100621.72;;;24.32;91.18
45894;BME280;31603;51.148;16.932;2023-08-12T07:53:38;100611.19;;;24.53;87.22
45894;BME280;31603;51.148;16.932;2023-08-12T07:56:06;100607.63;;;24.42;86.75
45894;BME280;31603;51.148;16.932;2023-08-12T07:58:33;100610.56;;;24.61;84.43
45894;BME280;31603;51.148;16.932;2023-08-12T08:01:00;100603.94;;;24.81;84.69
45894;BME280;31603;51.148;16.932;2023-08-12T08:03:26;100609.34;;;25.02;82.88
45894;BME280;31603;51.148;16.932;2023-08-12T08:05:53;100608.69;;;25.39;82.14
45894;BME280;31603;51.148;16.932;2023-08-12T08:08:19;100600.53;;;25.08;81.89
45894;BME280;31603;51.148;16.932;2023-08-12T08:10:45;100605.41;;;25.03;83.47
45894;BME280;31603;51.148;16.932;2023-08-12T08:13:13;100599.19;;;25.06;83.21
45894;BME280;31603;51.148;16.932;2023-08-12T08:15:40;100590.72;;;25.35;81.44
45894;BME280;31603;51.148;16.932;2023-08-12T08:18:06;100598.78;;;25.65;82.68
45894;BME280;31603;51.148;16.932;2023-08-12T08:20:33;100589.53;;;25.60;76.37
45894;BME280;31603;51.148;16.932;2023-08-12T08:23:00;100595.06;;;25.22;76.98
45894;BME280;31603;51.148;16.932;2023-08-12T08:25:26;100588.53;;;25.51;78.48
45894;BME280;31603;51.148;16.932;2023-08-12T08:27:53;100598.69;;;25.70;77.97
45894;BME280;31603;51.148;16.932;2023-08-12T08:30:20;100599.47;;;25.76;74.46
45894;BME280;31603;51.148;16.932;2023-08-12T08:32:48;100592.00;;;25.66;74.16
45894;BME280;31603;51.148;16.932;2023-08-12T08:35:14;100593.75;;;25.86;72.92
45894;BME280;31603;51.148;16.932;2023-08-12T08:37:41;100595.78;;;26.00;70.84
45894;BME280;31603;51.148;16.932;2023-08-12T08:40:08;100592.75;;;26.34;71.63
45894;BME280;31603;51.148;16.932;2023-08-12T08:42:35;100586.50;;;26.37;69.67
45894;BME280;31603;51.148;16.932;2023-08-12T08:45:05;100595.00;;;26.51;68.38
45894;BME280;31603;51.148;16.932;2023-08-12T08:47:36;100591.56;;;26.73;65.73
45894;BME280;31603;51.148;16.932;2023-08-12T08:50:04;100584.69;;;26.93;65.36
45894;BME280;31603;51.148;16.932;2023-08-12T08:52:31;100592.25;;;26.46;67.36
45894;BME280;31603;51.148;16.932;2023-08-12T08:55:00;100593.66;;;26.29;66.94
45894;BME280;31603;51.148;16.932;2023-08-12T08:57:27;100594.56;;;26.44;65.05
45894;BME280;31603;51.148;16.932;2023-08-12T08:59:54;100591.59;;;26.54;66.21
45894;BME280;31603;51.148;16.932;2023-08-12T09:02:22;100578.78;;;26.75;64.29
45894;BME280;31603;51.148;16.932;2023-08-12T09:04:51;100587.84;;;27.05;64.65
45894;BME280;31603;51.148;16.932;2023-08-12T09:07:18;100583.88;;;27.06;63.11
45894;BME280;31603;51.148;16.932;2023-08-12T09:09:46;100582.50;;;27.03;63.06
45894;BME280;31603;51.148;16.932;2023-08-12T09:12:16;100583.13;;;27.00;63.22
45894;BME280;31603;51.148;16.932;2023-08-12T09:14:43;100581.66;;;26.56;63.07
45894;BME280;31603;51.148;16.932;2023-08-12T09:17:10;100577.88;;;26.94;64.80
45894;BME280;31603;51.148;16.932;2023-08-12T09:19:36;100579.44;;;27.60;62.48
45894;BME280;31603;51.148;16.932;2023-08-12T09:22:04;100574.50;;;27.79;60.22
45894;BME280;31603;51.148;16.932;2023-08-12T09:24:31;100569.13;;;27.92;57.75
45894;BME280;31603;51.148;16.932;2023-08-12T09:26:58;100573.97;;;27.77;58.76
45894;BME280;31603;51.148;16.932;2023-08-12T09:29:29;100570.22;;;27.54;60.17
45894;BME280;31603;51.148;16.932;2023-08-12T09:32:05;100571.34;;;27.67;59.53
45894;BME280;31603;51.148;16.932;2023-08-12T09:34:31;100563.91;;;27.85;58.15
45894;BME280;31603;51.148;16.932;2023-08-12T09:36:58;100567.19;;;28.37;55.93
45894;BME280;31603;51.148;16.932;2023-08-12T09:39:26;100563.63;;;28.09;55.34
45894;BME280;31603;51.148;16.932;2023-08-12T09:41:52;100570.72;;;27.84;54.36
45894;BME280;31603;51.148;16.932;2023-08-12T09:44:19;100569.84;;;28.56;54.30
45894;BME280;31603;51.148;16.932;2023-08-12T09:46:45;100563.50;;;28.14;54.67
45894;BME280;31603;51.148;16.932;2023-08-12T09:49:12;100555.66;;;28.47;55.32
45894;BME280;31603;51.148;16.932;2023-08-12T09:51:38;100550.56;;;28.58;53.84
45894;BME280;31603;51.148;16.932;2023-08-12T09:54:08;100551.59;;;29.24;52.65
45894;BME280;31603;51.148;16.932;2023-08-12T09:56:39;100544.97;;;29.38;50.95
45894;BME280;31603;51.148;16.932;2023-08-12T09:59:06;100538.06;;;29.61;50.34
45894;BME280;31603;51.148;16.932;2023-08-12T10:01:34;100537.56;;;29.68;50.10
45894;BME280;31603;51.148;16.932;2023-08-12T10:04:01;100545.75;;;29.87;50.52
45894;BME280;31603;51.148;16.932;2023-08-12T10:06:32;100545.09;;;29.24;49.43
45894;BME280;31603;51.148;16.932;2023-08-12T10:09:00;100541.09;;;28.94;49.29
45894;BME280;31603;51.148;16.932;2023-08-12T10:11:26;100535.06;;;28.87;49.28
45894;BME280;31603;51.148;16.932;2023-08-12T10:13:54;100535.91;;;28.87;50.38
45894;BME280;31603;51.148;16.932;2023-08-12T10:16:22;100535.56;;;29.77;48.55
45894;BME280;31603;51.148;16.932;2023-08-12T10:18:49;100538.59;;;30.15;46.33
45894;BME280;31603;51.148;16.932;2023-08-12T10:21:17;100536.59;;;30.42;45.62
45894;BME280;31603;51.148;16.932;2023-08-12T10:23:45;100533.78;;;29.33;47.68
45894;BME280;31603;51.148;16.932;2023-08-12T10:26:12;100538.09;;;29.96;48.10
45894;BME280;31603;51.148;16.932;2023-08-12T10:28:40;100522.69;;;30.84;47.00
45894;BME280;31603;51.148;16.932;2023-08-12T10:31:08;100519.78;;;31.01;46.33
45894;BME280;31603;51.148;16.932;2023-08-12T10:33:35;100518.59;;;31.02;45.70
45894;BME280;31603;51.148;16.932;2023-08-12T10:36:03;100513.25;;;30.19;46.46
45894;BME280;31603;51.148;16.932;2023-08-12T10:38:30;100511.31;;;30.84;45.39
45894;BME280;31603;51.148;16.932;2023-08-12T10:41:15;100516.66;;;31.24;44.90
45894;BME280;31603;51.148;16.932;2023-08-12T10:43:49;100508.16;;;31.15;44.52
45894;BME280;31603;51.148;16.932;2023-08-12T10:46:24;100505.16;;;31.50;44.81
45894;BME280;31603;51.148;16.932;2023-08-12T10:48:59;100511.91;;;31.96;43.68
45894;BME280;31603;51.148;16.932;2023-08-12T10:51:40;100515.75;;;31.91;43.83
45894;BME280;31603;51.148;16.932;2023-08-12T10:54:14;100497.06;;;31.60;44.04
45894;BME280;31603;51.148;16.932;2023-08-12T10:57:06;100500.91;;;31.26;44.56
45894;BME280;31603;51.148;16.932;2023-08-12T10:59:50;100497.75;;;29.82;46.67
45894;BME280;31603;51.148;16.932;2023-08-12T11:02:19;100493.63;;;30.61;44.70
45894;BME280;31603;51.148;16.932;2023-08-12T11:04:49;100489.19;;;31.36;44.57
45894;BME280;31603;51.148;16.932;2023-08-12T11:07:16;100484.50;;;31.61;43.59
45894;BME280;31603;51.148;16.932;2023-08-12T11:09:44;100489.66;;;31.09;45.26
45894;BME280;31603;51.148;16.932;2023-08-12T11:12:11;100487.66;;;30.62;46.38
45894;BME280;31603;51.148;16.932;2023-08-12T11:14:49;100486.88;;;31.59;43.02
45894;BME280;31603;51.148;16.932;2023-08-12T11:17:29;100483.81;;;32.06;42.65
45894;BME280;31603;51.148;16.932;2023-08-12T11:19:55;100479.03;;;31.56;42.97
45894;BME280;31603;51.148;16.932;2023-08-12T11:22:22;100467.38;;;32.12;42.19
45894;BME280;31603;51.148;16.932;2023-08-12T11:24:49;100470.25;;;32.45;42.16
45894;BME280;31603;51.148;16.932;2023-08-12T11:27:15;100475.00;;;32.53;41.79
45894;BME280;31603;51.148;16.932;2023-08-12T11:29:42;100474.13;;;31.06;43.79
45894;BME280;31603;51.148;16.932;2023-08-12T11:32:09;100474.81;;;32.04;44.57
45894;BME280;31603;51.148;16.932;2023-08-12T11:34:39;100468.97;;;31.80;43.62
45894;BME280;31603;51.148;16.932;2023-08-12T11:37:05;100475.00;;;32.53;42.11
45894;BME280;31603;51.148;16.932;2023-08-12T11:39:32;100470.00;;;33.20;40.84
45894;BME280;31603;51.148;16.932;2023-08-12T11:41:59;100473.56;;;33.54;40.89
45894;BME280;31603;51.148;16.932;2023-08-12T11:44:25;100462.88;;;33.26;40.59
45894;BME280;31603;51.148;16.932;2023-08-12T11:46:52;100452.44;;;33.83;39.33
45894;BME280;31603;51.148;16.932;2023-08-12T11:49:18;100461.56;;;33.36;40.84
45894;BME280;31603;51.148;16.932;2023-08-12T11:51:47;100458.28;;;32.97;41.35
45894;BME280;31603;51.148;16.932;2023-08-12T11:54:15;100446.94;;;33.25;40.26
45894;BME280;31603;51.148;16.932;2023-08-12T11:56:42;100451.19;;;34.09;38.77
45894;BME280;31603;51.148;16.932;2023-08-12T11:59:08;100441.13;;;33.34;39.89
45894;BME280;31603;51.148;16.932;2023-08-12T12:01:35;100443.28;;;33.25;39.87
45894;BME280;31603;51.148;16.932;2023-08-12T12:04:03;100436.63;;;32.96;40.15
45894;BME280;31603;51.148;16.932;2023-08-12T12:06:31;100431.31;;;34.12;39.39
45894;BME280;31603;51.148;16.932;2023-08-12T12:09:04;100430.66;;;34.63;37.94
45894;BME280;31603;51.148;16.932;2023-08-12T12:11:31;100439.66;;;33.65;39.72
45894;BME280;31603;51.148;16.932;2023-08-12T12:14:01;100438.72;;;32.63;41.23
45894;BME280;31603;51.148;16.932;2023-08-12T12:16:37;100433.09;;;32.99;40.55
45894;BME280;31603;51.148;16.932;2023-08-12T12:19:03;100428.53;;;33.47;39.28
45894;BME280;31603;51.148;16.932;2023-08-12T12:21:32;100423.22;;;34.14;39.88
45894;BME280;31603;51.148;16.932;2023-08-12T12:24:06;100426.72;;;34.83;37.59
45894;BME280;31603;51.148;16.932;2023-08-12T12:26:32;100430.50;;;35.19;37.58
45894;BME280;31603;51.148;16.932;2023-08-12T12:28:59;100421.16;;;33.46;38.97
45894;BME280;31603;51.148;16.932;2023-08-12T12:31:25;100422.19;;;34.66;38.65
45894;BME280;31603;51.148;16.932;2023-08-12T12:33:52;100421.31;;;35.29;38.25
45894;BME280;31603;51.148;16.932;2023-08-12T12:36:18;100421.63;;;35.59;36.86